KLM891 EHAM-LFBO
Flight info
| Callsign | KLM891 |
|---|---|
| Flight time | N/A |
| Altitude | 33000 |
| Route | WOODY N872 DENOX/N0445F350 N872 MEDIL DCT KOVIN DCT DUCRA UM728 RESMI UN857 DISAK DCT DIRMO DCT GUERE DCT NARAK |
| Aircraft | B738/M-SDE2E3FGHIRWXY/LB1 |
Departure
| Time | N/A |
|---|---|
| Airport | Amsterdam Airport Schiphol (EHAM) |
Arrival
| Time | 2026-04-27 14:30 |
|---|---|
| Airport | Toulouse-Blagnac Airport (LFBO) |
| Time | Latitude | Longitude | Altitude | Speed | Heading |
|---|---|---|---|---|---|
| 2026-04-27 14:23 | 43.91536 | 1.28762 | 5355 ft | 272 kts | 209° |
| 2026-04-27 14:24 | 43.89853 | 1.27570 | 5212 ft | 265 kts | 209° |
| 2026-04-27 14:24 | 43.88233 | 1.26423 | 5087 ft | 260 kts | 208° |
| 2026-04-27 14:24 | 43.86608 | 1.25272 | 4905 ft | 262 kts | 208° |
| 2026-04-27 14:24 | 43.84995 | 1.24168 | 4772 ft | 256 kts | 207° |
| 2026-04-27 14:25 | 43.83413 | 1.23116 | 4648 ft | 249 kts | 207° |
| 2026-04-27 14:25 | 43.81878 | 1.22096 | 4390 ft | 248 kts | 207° |
| 2026-04-27 14:25 | 43.80341 | 1.21075 | 4171 ft | 241 kts | 208° |
| 2026-04-27 14:25 | 43.78772 | 1.20420 | 3943 ft | 235 kts | 179° |
| 2026-04-27 14:26 | 43.77299 | 1.21155 | 3778 ft | 226 kts | 140° |
| 2026-04-27 14:26 | 43.76203 | 1.22660 | 3526 ft | 220 kts | 136° |
| 2026-04-27 14:26 | 43.75048 | 1.24004 | 3245 ft | 213 kts | 142° |
| 2026-04-27 14:26 | 43.73898 | 1.25200 | 2954 ft | 201 kts | 142° |
| 2026-04-27 14:27 | 43.72804 | 1.26329 | 2707 ft | 191 kts | 142° |
| 2026-04-27 14:27 | 43.71775 | 1.27398 | 2473 ft | 179 kts | 142° |
| 2026-04-27 14:27 | 43.70791 | 1.28423 | 2253 ft | 177 kts | 142° |
| 2026-04-27 14:27 | 43.69830 | 1.29420 | 1999 ft | 168 kts | 142° |
| 2026-04-27 14:28 | 43.68921 | 1.30365 | 1799 ft | 162 kts | 142° |
| 2026-04-27 14:28 | 43.68013 | 1.31305 | 1614 ft | 163 kts | 143° |
| 2026-04-27 14:28 | 43.67096 | 1.32222 | 1391 ft | 161 kts | 143° |
| 2026-04-27 14:28 | 43.66231 | 1.33152 | 1185 ft | 153 kts | 143° |
| 2026-04-27 14:29 | 43.65403 | 1.34022 | 964 ft | 148 kts | 143° |
| 2026-04-27 14:29 | 43.64593 | 1.34858 | 757 ft | 145 kts | 142° |
| 2026-04-27 14:29 | 43.63797 | 1.35689 | 571 ft | 142 kts | 141° |
| 2026-04-27 14:29 | 43.63046 | 1.36479 | 489 ft | 124 kts | 142° |
| 2026-04-27 14:30 | 43.62474 | 1.37078 | 488 ft | 82 kts | 142° |
| 2026-04-27 14:30 | 43.62142 | 1.37422 | 490 ft | 38 kts | 144° |
| 2026-04-27 14:30 | 43.62103 | 1.37557 | 485 ft | 0 kts | 64° |
| 2026-04-27 14:30 | 43.62117 | 1.37588 | 487 ft | 11 kts | 56° |
| 2026-04-27 14:31 | 43.62169 | 1.37660 | 491 ft | 11 kts | 16° |
| 2026-04-27 14:31 | 43.62263 | 1.37607 | 484 ft | 20 kts | 324° |
| 2026-04-27 14:31 | 43.62374 | 1.37493 | 484 ft | 20 kts | 322° |
| 2026-04-27 14:31 | 43.62484 | 1.37377 | 486 ft | 19 kts | 322° |
| 2026-04-27 14:32 | 43.62593 | 1.37262 | 489 ft | 23 kts | 322° |
| 2026-04-27 14:32 | 43.62737 | 1.37110 | 493 ft | 29 kts | 322° |
| 2026-04-27 14:32 | 43.62914 | 1.36928 | 488 ft | 33 kts | 323° |
| 2026-04-27 14:32 | 43.62961 | 1.36878 | 489 ft | 32 kts | 323° |
| 2026-04-27 14:33 | 43.63023 | 1.36814 | 490 ft | 17 kts | 323° |
| 2026-04-27 14:33 | 43.63107 | 1.36809 | 485 ft | 8 kts | 50° |
| 2026-04-27 14:33 | 43.63113 | 1.36820 | 493 ft | 0 kts | 55° |
| 2026-04-27 14:34 | 43.63113 | 1.36821 | 493 ft | 0 kts | 55° |
| 2026-04-27 14:34 | 43.63134 | 1.36864 | 488 ft | 11 kts | 56° |
| 2026-04-27 14:34 | 43.63151 | 1.36916 | 488 ft | 3 kts | 70° |
| 2026-04-27 14:34 | 43.63160 | 1.36952 | 493 ft | 3 kts | 71° |
| 2026-04-27 14:35 | 43.63163 | 1.36962 | 493 ft | 0 kts | 71° |